OIZI  Iran Shahr  Airport

Iranshahr, Iran

Add Bookmark
ICAO OIZI
Type Airport
Status Operational
Latitude
27° 14' 9" N
27.236099
Longitude
60° 43' 12" E
60.720001
Local (DST + 5) UTC (GMT + 4)
May 30, 2015 08:51 May 30, 2015 16:21
Sunrise-Sunset Local UTC
Begin Civil Twilight 05:05 00:35
Sunrise 05:31 01:01
Sunset 07:17 14:47
End Civil Twilight 07:43 15:13
VFR
VFR
MVFR
MVFR
IFR
VFR
LIFR
VFR
Unknown
Unavailable

Current Weather

METAR Observed VFR
OIZI 301600Z 28004KT 9999 FEW045 40/M00 Q1008 Sat, May 30, 2015 @ 16:00 UTC
(21 Minutes ago)
Visual Flight Rules
Wind Visibility Clouds Conditions
280° at 4 knots (7 kph) 10 km or more
  • Few at 4,500 ft AGL
  • No significant weather
Temperatures Readings Precipitation
Current Temp
40°C
104°F
Dewpoint
0°C
32°F
Humidity 8%
Altimeter 29.76" Hg
Sea Level Pressure 1,008 mb
Field Elevation
591 m
1,939 ft
None Recorded
-
-

CheckWX.com is intended as a tool to help pilots better visualize weather data. It is not intended as a substitute for an official weather briefing obtained from a Flight Service Station. CheckWX.com does not meet the FAA requirements for an official pre-flight weather briefing. Therefore, it's important that pilots still call and obtain an official FSS pre-flight weather briefing.

© 2007-2015 CheckWX.com
16:21:20 UTC